sensor_id;sensor_type;location;lat;lon;timestamp;temperature;humidity
23301;DHT22;11819;51.394;12.340;2022-08-16T00:01:07;21.10;84.20
23301;DHT22;11819;51.394;12.340;2022-08-16T00:03:33;21.10;84.20
23301;DHT22;11819;51.394;12.340;2022-08-16T00:05:59;21.10;84.20
23301;DHT22;11819;51.394;12.340;2022-08-16T00:08:24;21.10;84.00
23301;DHT22;11819;51.394;12.340;2022-08-16T00:10:50;21.00;84.00
23301;DHT22;11819;51.394;12.340;2022-08-16T00:13:16;21.00;84.00
23301;DHT22;11819;51.394;12.340;2022-08-16T00:15:45;20.90;84.10
23301;DHT22;11819;51.394;12.340;2022-08-16T00:18:11;20.90;84.10
23301;DHT22;11819;51.394;12.340;2022-08-16T00:20:39;20.90;84.40
23301;DHT22;11819;51.394;12.340;2022-08-16T00:23:06;21.00;84.70
23301;DHT22;11819;51.394;12.340;2022-08-16T00:25:32;21.00;84.80
23301;DHT22;11819;51.394;12.340;2022-08-16T00:27:58;21.00;84.80
23301;DHT22;11819;51.394;12.340;2022-08-16T00:30:24;21.00;84.80
23301;DHT22;11819;51.394;12.340;2022-08-16T00:32:53;21.00;84.90
23301;DHT22;11819;51.394;12.340;2022-08-16T00:35:23;21.10;85.10
23301;DHT22;11819;51.394;12.340;2022-08-16T00:37:49;21.10;85.10
23301;DHT22;11819;51.394;12.340;2022-08-16T00:40:20;21.10;85.10
23301;DHT22;11819;51.394;12.340;2022-08-16T00:42:46;21.10;85.10
23301;DHT22;11819;51.394;12.340;2022-08-16T00:45:34;21.00;85.10
23301;DHT22;11819;51.394;12.340;2022-08-16T00:48:03;21.00;85.10
23301;DHT22;11819;51.394;12.340;2022-08-16T00:50:31;21.00;85.20
23301;DHT22;11819;51.394;12.340;2022-08-16T00:52:57;21.00;85.30
23301;DHT22;11819;51.394;12.340;2022-08-16T00:55:24;21.00;85.30
23301;DHT22;11819;51.394;12.340;2022-08-16T00:57:54;20.90;85.30
23301;DHT22;11819;51.394;12.340;2022-08-16T01:00:20;20.90;85.30
23301;DHT22;11819;51.394;12.340;2022-08-16T01:02:47;20.90;85.40
23301;DHT22;11819;51.394;12.340;2022-08-16T01:05:13;20.90;85.40
23301;DHT22;11819;51.394;12.340;2022-08-16T01:07:41;20.90;85.50
23301;DHT22;11819;51.394;12.340;2022-08-16T01:10:09;20.90;85.50
23301;DHT22;11819;51.394;12.340;2022-08-16T01:12:34;20.80;85.50
23301;DHT22;11819;51.394;12.340;2022-08-16T01:15:00;20.80;85.50
23301;DHT22;11819;51.394;12.340;2022-08-16T01:17:27;20.80;85.50
23301;DHT22;11819;51.394;12.340;2022-08-16T01:19:57;20.80;85.50
23301;DHT22;11819;51.394;12.340;2022-08-16T01:25:07;20.90;85.80
23301;DHT22;11819;51.394;12.340;2022-08-16T01:27:40;20.90;85.70
23301;DHT22;11819;51.394;12.340;2022-08-16T01:30:17;20.90;85.70
23301;DHT22;11819;51.394;12.340;2022-08-16T01:32:43;20.90;85.70
23301;DHT22;11819;51.394;12.340;2022-08-16T01:35:23;20.80;85.70
23301;DHT22;11819;51.394;12.340;2022-08-16T01:37:54;20.80;85.70
23301;DHT22;11819;51.394;12.340;2022-08-16T01:40:27;20.80;85.80
23301;DHT22;11819;51.394;12.340;2022-08-16T01:42:54;20.80;85.90
23301;DHT22;11819;51.394;12.340;2022-08-16T01:45:20;20.80;86.10
23301;DHT22;11819;51.394;12.340;2022-08-16T01:47:49;20.80;86.20
23301;DHT22;11819;51.394;12.340;2022-08-16T01:50:15;20.80;86.30
23301;DHT22;11819;51.394;12.340;2022-08-16T01:52:41;20.80;86.40
23301;DHT22;11819;51.394;12.340;2022-08-16T01:55:11;20.80;86.70
23301;DHT22;11819;51.394;12.340;2022-08-16T01:57:37;20.80;86.80
23301;DHT22;11819;51.394;12.340;2022-08-16T02:00:07;20.80;86.90
23301;DHT22;11819;51.394;12.340;2022-08-16T02:02:39;20.80;87.00
23301;DHT22;11819;51.394;12.340;2022-08-16T02:05:05;20.80;87.00
23301;DHT22;11819;51.394;12.340;2022-08-16T02:07:31;20.70;87.10
23301;DHT22;11819;51.394;12.340;2022-08-16T02:09:57;20.80;87.20
23301;DHT22;11819;51.394;12.340;2022-08-16T02:12:23;20.80;87.30
23301;DHT22;11819;51.394;12.340;2022-08-16T02:14:53;20.80;87.30
23301;DHT22;11819;51.394;12.340;2022-08-16T02:17:19;20.70;87.30
23301;DHT22;11819;51.394;12.340;2022-08-16T02:19:45;20.70;87.40
23301;DHT22;11819;51.394;12.340;2022-08-16T02:22:17;20.60;87.50
23301;DHT22;11819;51.394;12.340;2022-08-16T02:24:43;20.60;87.80
23301;DHT22;11819;51.394;12.340;2022-08-16T02:27:10;20.60;87.90
23301;DHT22;11819;51.394;12.340;2022-08-16T02:29:36;20.50;87.90
23301;DHT22;11819;51.394;12.340;2022-08-16T02:32:04;20.50;88.10
23301;DHT22;11819;51.394;12.340;2022-08-16T02:34:30;20.40;88.20
23301;DHT22;11819;51.394;12.340;2022-08-16T02:36:56;20.40;88.40
23301;DHT22;11819;51.394;12.340;2022-08-16T02:39:23;20.40;88.70
23301;DHT22;11819;51.394;12.340;2022-08-16T02:41:51;20.40;88.80
23301;DHT22;11819;51.394;12.340;2022-08-16T02:44:18;20.30;88.80
23301;DHT22;11819;51.394;12.340;2022-08-16T02:46:47;20.30;88.90
23301;DHT22;11819;51.394;12.340;2022-08-16T02:49:12;20.30;89.00
23301;DHT22;11819;51.394;12.340;2022-08-16T02:51:41;20.30;89.00
23301;DHT22;11819;51.394;12.340;2022-08-16T02:54:07;20.30;89.00
23301;DHT22;11819;51.394;12.340;2022-08-16T02:56:34;20.20;89.00
23301;DHT22;11819;51.394;12.340;2022-08-16T02:59:00;20.20;89.10
23301;DHT22;11819;51.394;12.340;2022-08-16T03:01:30;20.20;89.10
23301;DHT22;11819;51.394;12.340;2022-08-16T03:03:57;20.20;89.20
23301;DHT22;11819;51.394;12.340;2022-08-16T03:06:26;20.20;89.10
23301;DHT22;11819;51.394;12.340;2022-08-16T03:08:56;20.30;89.10
23301;DHT22;11819;51.394;12.340;2022-08-16T03:11:23;20.30;89.00
23301;DHT22;11819;51.394;12.340;2022-08-16T03:13:52;20.30;88.90
23301;DHT22;11819;51.394;12.340;2022-08-16T03:16:19;20.30;88.80
23301;DHT22;11819;51.394;12.340;2022-08-16T03:18:47;20.30;88.70
23301;DHT22;11819;51.394;12.340;2022-08-16T03:21:12;20.40;88.70
23301;DHT22;11819;51.394;12.340;2022-08-16T03:23:39;20.40;88.60
23301;DHT22;11819;51.394;12.340;2022-08-16T03:26:07;20.30;88.30
23301;DHT22;11819;51.394;12.340;2022-08-16T03:28:33;20.30;88.30
23301;DHT22;11819;51.394;12.340;2022-08-16T03:30:59;20.30;88.30
23301;DHT22;11819;51.394;12.340;2022-08-16T03:33:25;20.20;88.20
23301;DHT22;11819;51.394;12.340;2022-08-16T03:35:54;20.20;88.20
23301;DHT22;11819;51.394;12.340;2022-08-16T03:38:29;20.20;88.30
23301;DHT22;11819;51.394;12.340;2022-08-16T03:40:57;20.20;88.40
23301;DHT22;11819;51.394;12.340;2022-08-16T03:43:26;20.10;88.40
23301;DHT22;11819;51.394;12.340;2022-08-16T03:45:53;20.10;88.40
23301;DHT22;11819;51.394;12.340;2022-08-16T03:48:27;20.10;89.20
23301;DHT22;11819;51.394;12.340;2022-08-16T03:50:53;20.10;88.50
23301;DHT22;11819;51.394;12.340;2022-08-16T03:53:19;20.10;88.40
23301;DHT22;11819;51.394;12.340;2022-08-16T03:55:45;20.10;88.30
23301;DHT22;11819;51.394;12.340;2022-08-16T03:58:11;20.10;88.40
23301;DHT22;11819;51.394;12.340;2022-08-16T04:00:37;20.00;88.20
23301;DHT22;11819;51.394;12.340;2022-08-16T04:03:06;20.00;88.30
23301;DHT22;11819;51.394;12.340;2022-08-16T04:05:35;20.00;88.30
23301;DHT22;11819;51.394;12.340;2022-08-16T04:08:03;19.90;88.30
23301;DHT22;11819;51.394;12.340;2022-08-16T04:10:29;19.90;88.40
23301;DHT22;11819;51.394;12.340;2022-08-16T04:12:56;19.90;88.50
23301;DHT22;11819;51.394;12.340;2022-08-16T04:15:22;19.80;88.40
23301;DHT22;11819;51.394;12.340;2022-08-16T04:18:01;19.80;88.50
23301;DHT22;11819;51.394;12.340;2022-08-16T04:20:27;19.70;88.50
23301;DHT22;11819;51.394;12.340;2022-08-16T04:22:52;19.70;88.70
23301;DHT22;11819;51.394;12.340;2022-08-16T04:25:19;19.70;88.60
23301;DHT22;11819;51.394;12.340;2022-08-16T04:27:45;19.70;88.70
23301;DHT22;11819;51.394;12.340;2022-08-16T04:30:13;19.70;88.70
23301;DHT22;11819;51.394;12.340;2022-08-16T04:32:44;19.70;88.60
23301;DHT22;11819;51.394;12.340;2022-08-16T04:35:13;19.70;88.60
23301;DHT22;11819;51.394;12.340;2022-08-16T04:37:42;19.80;88.50
23301;DHT22;11819;51.394;12.340;2022-08-16T04:40:15;19.80;88.20
23301;DHT22;11819;51.394;12.340;2022-08-16T04:42:41;19.80;88.10
23301;DHT22;11819;51.394;12.340;2022-08-16T04:45:09;19.80;87.90
23301;DHT22;11819;51.394;12.340;2022-08-16T04:47:36;19.80;87.70
23301;DHT22;11819;51.394;12.340;2022-08-16T04:50:12;19.80;87.50
23301;DHT22;11819;51.394;12.340;2022-08-16T04:52:51;19.80;87.40
23301;DHT22;11819;51.394;12.340;2022-08-16T04:55:22;19.90;87.40
23301;DHT22;11819;51.394;12.340;2022-08-16T04:57:50;19.90;87.30
23301;DHT22;11819;51.394;12.340;2022-08-16T05:00:22;20.00;87.10
23301;DHT22;11819;51.394;12.340;2022-08-16T05:02:51;20.00;86.90
23301;DHT22;11819;51.394;12.340;2022-08-16T05:05:17;20.00;86.70
23301;DHT22;11819;51.394;12.340;2022-08-16T05:07:43;20.00;86.60
23301;DHT22;11819;51.394;12.340;2022-08-16T05:10:09;20.00;86.30
23301;DHT22;11819;51.394;12.340;2022-08-16T05:12:35;20.00;86.10
23301;DHT22;11819;51.394;12.340;2022-08-16T05:15:02;20.00;86.00
23301;DHT22;11819;51.394;12.340;2022-08-16T05:17:28;20.00;86.00
23301;DHT22;11819;51.394;12.340;2022-08-16T05:19:57;20.00;85.90
23301;DHT22;11819;51.394;12.340;2022-08-16T05:22:25;20.00;85.90
23301;DHT22;11819;51.394;12.340;2022-08-16T05:24:52;20.00;85.70
23301;DHT22;11819;51.394;12.340;2022-08-16T05:27:18;20.10;85.60
23301;DHT22;11819;51.394;12.340;2022-08-16T05:29:44;20.10;85.50
23301;DHT22;11819;51.394;12.340;2022-08-16T05:32:14;20.10;85.30
23301;DHT22;11819;51.394;12.340;2022-08-16T05:34:39;20.10;85.20
23301;DHT22;11819;51.394;12.340;2022-08-16T05:37:05;20.20;85.10
23301;DHT22;11819;51.394;12.340;2022-08-16T05:39:34;20.20;85.00
23301;DHT22;11819;51.394;12.340;2022-08-16T05:42:00;20.20;84.90
23301;DHT22;11819;51.394;12.340;2022-08-16T05:44:26;20.20;84.80
23301;DHT22;11819;51.394;12.340;2022-08-16T05:46:58;20.20;84.60
23301;DHT22;11819;51.394;12.340;2022-08-16T05:49:26;20.30;84.50
23301;DHT22;11819;51.394;12.340;2022-08-16T05:51:55;20.30;84.30
23301;DHT22;11819;51.394;12.340;2022-08-16T05:54:23;20.40;84.00
23301;DHT22;11819;51.394;12.340;2022-08-16T05:56:49;20.40;83.90
23301;DHT22;11819;51.394;12.340;2022-08-16T05:59:17;20.40;83.70
23301;DHT22;11819;51.394;12.340;2022-08-16T06:01:43;20.40;83.60
23301;DHT22;11819;51.394;12.340;2022-08-16T06:04:10;20.40;83.40
23301;DHT22;11819;51.394;12.340;2022-08-16T06:06:41;20.40;83.20
23301;DHT22;11819;51.394;12.340;2022-08-16T06:09:08;20.40;83.10
23301;DHT22;11819;51.394;12.340;2022-08-16T06:11:34;20.40;83.00
23301;DHT22;11819;51.394;12.340;2022-08-16T06:14:01;20.50;82.90
23301;DHT22;11819;51.394;12.340;2022-08-16T06:16:34;20.50;82.80
23301;DHT22;11819;51.394;12.340;2022-08-16T06:19:00;20.50;82.70
23301;DHT22;11819;51.394;12.340;2022-08-16T06:21:26;20.50;82.40
23301;DHT22;11819;51.394;12.340;2022-08-16T06:23:58;20.60;82.20
23301;DHT22;11819;51.394;12.340;2022-08-16T06:26:23;20.70;82.00
23301;DHT22;11819;51.394;12.340;2022-08-16T06:28:49;20.70;81.80
23301;DHT22;11819;51.394;12.340;2022-08-16T06:31:21;20.70;81.40
23301;DHT22;11819;51.394;12.340;2022-08-16T06:33:47;20.70;81.10
23301;DHT22;11819;51.394;12.340;2022-08-16T06:36:15;20.70;81.10
23301;DHT22;11819;51.394;12.340;2022-08-16T06:38:53;20.70;81.00
23301;DHT22;11819;51.394;12.340;2022-08-16T06:41:24;20.80;81.00
23301;DHT22;11819;51.394;12.340;2022-08-16T06:43:50;20.80;80.80
23301;DHT22;11819;51.394;12.340;2022-08-16T06:46:34;20.90;80.80
23301;DHT22;11819;51.394;12.340;2022-08-16T06:49:10;20.90;80.50
23301;DHT22;11819;51.394;12.340;2022-08-16T06:51:37;21.00;80.40
23301;DHT22;11819;51.394;12.340;2022-08-16T06:54:05;21.00;80.30
23301;DHT22;11819;51.394;12.340;2022-08-16T06:56:31;21.00;80.20
23301;DHT22;11819;51.394;12.340;2022-08-16T06:59:05;21.10;80.00
23301;DHT22;11819;51.394;12.340;2022-08-16T07:01:35;21.10;79.70
23301;DHT22;11819;51.394;12.340;2022-08-16T07:04:00;21.20;79.40
23301;DHT22;11819;51.394;12.340;2022-08-16T07:06:32;21.20;79.10
23301;DHT22;11819;51.394;12.340;2022-08-16T07:09:03;21.30;79.00
23301;DHT22;11819;51.394;12.340;2022-08-16T07:11:32;21.30;78.70
23301;DHT22;11819;51.394;12.340;2022-08-16T07:13:57;21.30;78.50
23301;DHT22;11819;51.394;12.340;2022-08-16T07:16:28;21.30;78.50
23301;DHT22;11819;51.394;12.340;2022-08-16T07:18:55;21.40;78.40
23301;DHT22;11819;51.394;12.340;2022-08-16T07:21:23;21.50;78.30
23301;DHT22;11819;51.394;12.340;2022-08-16T07:23:50;21.50;78.30
23301;DHT22;11819;51.394;12.340;2022-08-16T07:26:23;21.60;78.00
23301;DHT22;11819;51.394;12.340;2022-08-16T07:28:50;21.60;77.80
23301;DHT22;11819;51.394;12.340;2022-08-16T07:31:16;21.60;77.60
23301;DHT22;11819;51.394;12.340;2022-08-16T07:33:43;21.70;77.60
23301;DHT22;11819;51.394;12.340;2022-08-16T07:36:10;21.70;77.40
23301;DHT22;11819;51.394;12.340;2022-08-16T07:38:43;21.80;77.30
23301;DHT22;11819;51.394;12.340;2022-08-16T07:41:09;21.80;77.20
23301;DHT22;11819;51.394;12.340;2022-08-16T07:43:35;21.80;77.10
23301;DHT22;11819;51.394;12.340;2022-08-16T07:46:03;21.90;77.10
23301;DHT22;11819;51.394;12.340;2022-08-16T07:48:34;21.90;77.00
23301;DHT22;11819;51.394;12.340;2022-08-16T07:51:01;22.00;76.90
23301;DHT22;11819;51.394;12.340;2022-08-16T07:53:30;22.00;76.60
23301;DHT22;11819;51.394;12.340;2022-08-16T07:55:57;22.10;76.40
23301;DHT22;11819;51.394;12.340;2022-08-16T07:58:28;22.10;77.00
23301;DHT22;11819;51.394;12.340;2022-08-16T08:00:54;22.20;76.10
23301;DHT22;11819;51.394;12.340;2022-08-16T08:03:20;22.20;76.00
23301;DHT22;11819;51.394;12.340;2022-08-16T08:05:47;22.20;75.80
23301;DHT22;11819;51.394;12.340;2022-08-16T08:08:13;22.30;75.50
23301;DHT22;11819;51.394;12.340;2022-08-16T08:10:40;22.30;75.50
23301;DHT22;11819;51.394;12.340;2022-08-16T08:13:05;22.40;75.50
23301;DHT22;11819;51.394;12.340;2022-08-16T08:15:31;22.40;75.20
23301;DHT22;11819;51.394;12.340;2022-08-16T08:17:56;22.50;75.10
23301;DHT22;11819;51.394;12.340;2022-08-16T08:20:28;22.50;74.80
23301;DHT22;11819;51.394;12.340;2022-08-16T08:22:57;22.60;74.50
23301;DHT22;11819;51.394;12.340;2022-08-16T08:25:24;22.60;74.10
23301;DHT22;11819;51.394;12.340;2022-08-16T08:27:51;22.60;74.00
23301;DHT22;11819;51.394;12.340;2022-08-16T08:30:17;22.70;73.70
23301;DHT22;11819;51.394;12.340;2022-08-16T08:32:44;22.70;73.60
23301;DHT22;11819;51.394;12.340;2022-08-16T08:35:09;22.80;73.40
23301;DHT22;11819;51.394;12.340;2022-08-16T08:37:38;22.80;72.90
23301;DHT22;11819;51.394;12.340;2022-08-16T08:40:08;22.90;72.60
23301;DHT22;11819;51.394;12.340;2022-08-16T08:42:35;22.90;72.50
23301;DHT22;11819;51.394;12.340;2022-08-16T08:45:03;22.90;72.40
23301;DHT22;11819;51.394;12.340;2022-08-16T08:47:29;23.00;72.10
23301;DHT22;11819;51.394;12.340;2022-08-16T08:49:56;23.00;71.70
23301;DHT22;11819;51.394;12.340;2022-08-16T08:52:24;23.00;71.70
23301;DHT22;11819;51.394;12.340;2022-08-16T08:54:50;23.10;71.50
23301;DHT22;11819;51.394;12.340;2022-08-16T08:57:17;23.10;71.30
23301;DHT22;11819;51.394;12.340;2022-08-16T08:59:58;23.20;71.30
23301;DHT22;11819;51.394;12.340;2022-08-16T09:02:24;23.30;71.20
23301;DHT22;11819;51.394;12.340;2022-08-16T09:04:52;23.40;71.20
23301;DHT22;11819;51.394;12.340;2022-08-16T09:07:20;23.40;70.90
23301;DHT22;11819;51.394;12.340;2022-08-16T09:09:47;23.50;70.50
23301;DHT22;11819;51.394;12.340;2022-08-16T09:12:13;23.50;70.00
23301;DHT22;11819;51.394;12.340;2022-08-16T09:14:46;23.60;69.80
23301;DHT22;11819;51.394;12.340;2022-08-16T09:17:12;23.60;69.40
23301;DHT22;11819;51.394;12.340;2022-08-16T09:19:38;23.60;69.20
23301;DHT22;11819;51.394;12.340;2022-08-16T09:22:04;23.70;69.10
23301;DHT22;11819;51.394;12.340;2022-08-16T09:24:32;23.70;69.10
23301;DHT22;11819;51.394;12.340;2022-08-16T09:26:58;23.80;69.00
23301;DHT22;11819;51.394;12.340;2022-08-16T09:29:24;23.80;68.90
23301;DHT22;11819;51.394;12.340;2022-08-16T09:31:50;23.90;68.80
23301;DHT22;11819;51.394;12.340;2022-08-16T09:34:15;24.00;68.20
23301;DHT22;11819;51.394;12.340;2022-08-16T09:36:41;24.00;68.00
23301;DHT22;11819;51.394;12.340;2022-08-16T09:39:07;24.10;67.80
23301;DHT22;11819;51.394;12.340;2022-08-16T09:41:35;24.10;67.40
23301;DHT22;11819;51.394;12.340;2022-08-16T09:44:00;24.10;67.00
23301;DHT22;11819;51.394;12.340;2022-08-16T09:46:29;24.20;66.80
23301;DHT22;11819;51.394;12.340;2022-08-16T09:48:55;24.20;66.60
23301;DHT22;11819;51.394;12.340;2022-08-16T09:51:20;24.30;66.50
23301;DHT22;11819;51.394;12.340;2022-08-16T09:53:48;24.30;66.30
23301;DHT22;11819;51.394;12.340;2022-08-16T09:56:26;24.40;66.20
23301;DHT22;11819;51.394;12.340;2022-08-16T09:58:53;24.40;66.00
23301;DHT22;11819;51.394;12.340;2022-08-16T10:01:19;24.40;65.90
23301;DHT22;11819;51.394;12.340;2022-08-16T10:03:45;24.50;65.50
23301;DHT22;11819;51.394;12.340;2022-08-16T10:06:10;24.50;64.60
23301;DHT22;11819;51.394;12.340;2022-08-16T10:08:36;24.60;64.10
23301;DHT22;11819;51.394;12.340;2022-08-16T10:11:01;24.70;63.50
23301;DHT22;11819;51.394;12.340;2022-08-16T10:13:45;24.70;62.50
23301;DHT22;11819;51.394;12.340;2022-08-16T10:16:11;24.80;61.20
23301;DHT22;11819;51.394;12.340;2022-08-16T10:18:39;24.80;60.50
23301;DHT22;11819;51.394;12.340;2022-08-16T10:21:05;24.90;60.30
23301;DHT22;11819;51.394;12.340;2022-08-16T10:23:31;25.00;59.90
23301;DHT22;11819;51.394;12.340;2022-08-16T10:25:57;25.00;59.50
23301;DHT22;11819;51.394;12.340;2022-08-16T10:28:24;25.00;59.10
23301;DHT22;11819;51.394;12.340;2022-08-16T10:30:50;25.10;58.60
23301;DHT22;11819;51.394;12.340;2022-08-16T10:33:16;25.10;58.50
23301;DHT22;11819;51.394;12.340;2022-08-16T10:35:43;25.20;58.40
23301;DHT22;11819;51.394;12.340;2022-08-16T10:38:09;25.30;57.50
23301;DHT22;11819;51.394;12.340;2022-08-16T10:40:37;25.30;56.00
23301;DHT22;11819;51.394;12.340;2022-08-16T10:43:03;25.40;56.20
23301;DHT22;11819;51.394;12.340;2022-08-16T10:45:30;25.40;55.80
23301;DHT22;11819;51.394;12.340;2022-08-16T10:47:56;25.50;55.50
23301;DHT22;11819;51.394;12.340;2022-08-16T10:50:22;25.50;55.00
23301;DHT22;11819;51.394;12.340;2022-08-16T10:52:48;25.60;54.70
23301;DHT22;11819;51.394;12.340;2022-08-16T10:55:13;25.60;53.90
23301;DHT22;11819;51.394;12.340;2022-08-16T10:57:40;25.70;53.50
23301;DHT22;11819;51.394;12.340;2022-08-16T11:00:11;25.70;53.00
23301;DHT22;11819;51.394;12.340;2022-08-16T11:02:39;25.80;53.40
23301;DHT22;11819;51.394;12.340;2022-08-16T11:05:06;25.70;53.60
23301;DHT22;11819;51.394;12.340;2022-08-16T11:07:34;25.80;53.80
23301;DHT22;11819;51.394;12.340;2022-08-16T11:09:59;25.90;53.70
23301;DHT22;11819;51.394;12.340;2022-08-16T11:12:27;25.90;53.60
23301;DHT22;11819;51.394;12.340;2022-08-16T11:14:53;26.00;53.90
23301;DHT22;11819;51.394;12.340;2022-08-16T11:17:18;26.00;54.00
23301;DHT22;11819;51.394;12.340;2022-08-16T11:19:44;26.00;53.90
23301;DHT22;11819;51.394;12.340;2022-08-16T11:22:10;26.00;54.00
23301;DHT22;11819;51.394;12.340;2022-08-16T11:24:35;26.10;54.30
23301;DHT22;11819;51.394;12.340;2022-08-16T11:27:10;26.10;54.50
23301;DHT22;11819;51.394;12.340;2022-08-16T11:29:36;26.20;54.60
23301;DHT22;11819;51.394;12.340;2022-08-16T11:32:02;26.30;54.60
23301;DHT22;11819;51.394;12.340;2022-08-16T11:34:30;26.30;54.40
23301;DHT22;11819;51.394;12.340;2022-08-16T11:36:57;26.40;54.30
23301;DHT22;11819;51.394;12.340;2022-08-16T11:39:23;26.50;54.00
23301;DHT22;11819;51.394;12.340;2022-08-16T11:41:48;26.60;53.60
23301;DHT22;11819;51.394;12.340;2022-08-16T11:44:14;26.70;53.50
23301;DHT22;11819;51.394;12.340;2022-08-16T11:46:39;26.70;53.20
23301;DHT22;11819;51.394;12.340;2022-08-16T11:49:05;26.80;53.10
23301;DHT22;11819;51.394;12.340;2022-08-16T11:51:31;26.90;53.10
23301;DHT22;11819;51.394;12.340;2022-08-16T11:53:56;27.00;53.30
23301;DHT22;11819;51.394;12.340;2022-08-16T11:56:22;27.10;53.30
23301;DHT22;11819;51.394;12.340;2022-08-16T11:58:48;27.10;52.80
23301;DHT22;11819;51.394;12.340;2022-08-16T12:01:14;27.20;51.80
23301;DHT22;11819;51.394;12.340;2022-08-16T12:03:39;27.30;51.80
23301;DHT22;11819;51.394;12.340;2022-08-16T12:06:12;27.40;51.80
23301;DHT22;11819;51.394;12.340;2022-08-16T12:08:39;27.50;51.40
23301;DHT22;11819;51.394;12.340;2022-08-16T12:11:05;27.50;51.20
23301;DHT22;11819;51.394;12.340;2022-08-16T12:13:31;27.70;51.00
23301;DHT22;11819;51.394;12.340;2022-08-16T12:15:57;27.70;51.00
23301;DHT22;11819;51.394;12.340;2022-08-16T12:18:23;27.80;50.50
23301;DHT22;11819;51.394;12.340;2022-08-16T12:20:49;28.00;49.90
23301;DHT22;11819;51.394;12.340;2022-08-16T12:23:15;28.10;49.40
23301;DHT22;11819;51.394;12.340;2022-08-16T12:25:41;28.20;49.00
23301;DHT22;11819;51.394;12.340;2022-08-16T12:28:08;28.40;48.80
23301;DHT22;11819;51.394;12.340;2022-08-16T12:30:36;28.50;48.90
23301;DHT22;11819;51.394;12.340;2022-08-16T12:33:05;28.60;48.60
23301;DHT22;11819;51.394;12.340;2022-08-16T12:35:32;28.80;48.20
23301;DHT22;11819;51.394;12.340;2022-08-16T12:37:59;29.00;47.70
23301;DHT22;11819;51.394;12.340;2022-08-16T12:40:29;29.10;46.30
23301;DHT22;11819;51.394;12.340;2022-08-16T12:42:58;29.20;45.60
23301;DHT22;11819;51.394;12.340;2022-08-16T12:45:25;29.30;45.70
23301;DHT22;11819;51.394;12.340;2022-08-16T12:47:52;29.50;45.30
23301;DHT22;11819;51.394;12.340;2022-08-16T12:50:36;29.60;45.10
23301;DHT22;11819;51.394;12.340;2022-08-16T12:53:02;29.80;45.10
23301;DHT22;11819;51.394;12.340;2022-08-16T12:55:28;29.90;45.20
23301;DHT22;11819;51.394;12.340;2022-08-16T12:57:56;30.10;45.20
23301;DHT22;11819;51.394;12.340;2022-08-16T13:00:23;30.30;44.30
23301;DHT22;11819;51.394;12.340;2022-08-16T13:02:50;30.40;44.50
23301;DHT22;11819;51.394;12.340;2022-08-16T13:05:17;30.60;44.40
23301;DHT22;11819;51.394;12.340;2022-08-16T13:07:43;30.70;44.20
23301;DHT22;11819;51.394;12.340;2022-08-16T13:10:11;30.80;44.10
23301;DHT22;11819;51.394;12.340;2022-08-16T13:12:46;31.00;44.20
23301;DHT22;11819;51.394;12.340;2022-08-16T13:15:17;31.10;43.50
23301;DHT22;11819;51.394;12.340;2022-08-16T13:17:43;31.20;43.60
23301;DHT22;11819;51.394;12.340;2022-08-16T13:20:16;31.40;43.40
23301;DHT22;11819;51.394;12.340;2022-08-16T13:22:45;31.60;43.30
23301;DHT22;11819;51.394;12.340;2022-08-16T13:25:14;31.80;42.90
23301;DHT22;11819;51.394;12.340;2022-08-16T13:27:40;31.90;42.70
23301;DHT22;11819;51.394;12.340;2022-08-16T13:30:06;32.10;42.80
23301;DHT22;11819;51.394;12.340;2022-08-16T13:32:32;32.20;42.60
23301;DHT22;11819;51.394;12.340;2022-08-16T13:34:57;32.30;41.10
23301;DHT22;11819;51.394;12.340;2022-08-16T13:37:23;32.30;40.80
23301;DHT22;11819;51.394;12.340;2022-08-16T13:39:48;32.20;40.60
23301;DHT22;11819;51.394;12.340;2022-08-16T13:42:14;32.30;40.50
23301;DHT22;11819;51.394;12.340;2022-08-16T13:44:40;32.40;40.90
23301;DHT22;11819;51.394;12.340;2022-08-16T13:47:06;32.50;40.20
23301;DHT22;11819;51.394;12.340;2022-08-16T13:49:33;32.50;39.80
23301;DHT22;11819;51.394;12.340;2022-08-16T13:51:59;32.50;39.80
23301;DHT22;11819;51.394;12.340;2022-08-16T13:54:25;32.60;40.20
23301;DHT22;11819;51.394;12.340;2022-08-16T13:56:51;32.70;39.90
23301;DHT22;11819;51.394;12.340;2022-08-16T13:59:16;32.80;39.70
23301;DHT22;11819;51.394;12.340;2022-08-16T14:01:44;32.90;39.30
23301;DHT22;11819;51.394;12.340;2022-08-16T14:04:10;32.90;39.40
23301;DHT22;11819;51.394;12.340;2022-08-16T14:06:36;33.00;39.50
23301;DHT22;11819;51.394;12.340;2022-08-16T14:09:02;33.00;39.30
23301;DHT22;11819;51.394;12.340;2022-08-16T14:11:27;32.80;39.30
23301;DHT22;11819;51.394;12.340;2022-08-16T14:13:53;32.60;39.60
23301;DHT22;11819;51.394;12.340;2022-08-16T14:16:18;32.50;39.60
23301;DHT22;11819;51.394;12.340;2022-08-16T14:18:44;32.50;39.60
23301;DHT22;11819;51.394;12.340;2022-08-16T14:21:10;32.30;39.50
23301;DHT22;11819;51.394;12.340;2022-08-16T14:23:35;32.10;39.80
23301;DHT22;11819;51.394;12.340;2022-08-16T14:26:01;32.10;40.30
23301;DHT22;11819;51.394;12.340;2022-08-16T14:28:26;32.10;40.50
23301;DHT22;11819;51.394;12.340;2022-08-16T14:30:52;32.40;40.60
23301;DHT22;11819;51.394;12.340;2022-08-16T14:33:18;32.70;40.30
23301;DHT22;11819;51.394;12.340;2022-08-16T14:35:44;33.00;39.90
23301;DHT22;11819;51.394;12.340;2022-08-16T14:38:10;33.30;39.90
23301;DHT22;11819;51.394;12.340;2022-08-16T14:40:36;33.70;39.50
23301;DHT22;11819;51.394;12.340;2022-08-16T14:43:02;34.10;39.60
23301;DHT22;11819;51.394;12.340;2022-08-16T14:45:28;34.30;38.10
23301;DHT22;11819;51.394;12.340;2022-08-16T14:47:54;34.40;38.60
23301;DHT22;11819;51.394;12.340;2022-08-16T14:50:25;34.70;37.90
23301;DHT22;11819;51.394;12.340;2022-08-16T14:52:59;34.90;37.40
23301;DHT22;11819;51.394;12.340;2022-08-16T14:55:27;34.90;36.50
23301;DHT22;11819;51.394;12.340;2022-08-16T14:57:53;34.90;36.80
23301;DHT22;11819;51.394;12.340;2022-08-16T15:00:19;35.00;36.80
23301;DHT22;11819;51.394;12.340;2022-08-16T15:02:49;35.00;36.50
23301;DHT22;11819;51.394;12.340;2022-08-16T15:05:15;35.00;36.20
23301;DHT22;11819;51.394;12.340;2022-08-16T15:07:41;34.70;35.70
23301;DHT22;11819;51.394;12.340;2022-08-16T15:10:07;34.40;35.90
23301;DHT22;11819;51.394;12.340;2022-08-16T15:12:33;34.20;36.10
23301;DHT22;11819;51.394;12.340;2022-08-16T15:15:00;34.00;36.00
23301;DHT22;11819;51.394;12.340;2022-08-16T15:17:26;33.90;36.30
23301;DHT22;11819;51.394;12.340;2022-08-16T15:19:54;33.70;36.30